sensor_id;sensor_type;location;lat;lon;timestamp;P1;durP1;ratioP1;P2;durP2;ratioP2
177;SDS011;77;48.792;9.032;2022-09-28T00:01:33;4.00;;;2.10;;
177;SDS011;77;48.792;9.032;2022-09-28T00:03:58;2.87;;;2.00;;
177;SDS011;77;48.792;9.032;2022-09-28T00:06:24;4.30;;;2.37;;
177;SDS011;77;48.792;9.032;2022-09-28T00:08:49;4.17;;;2.20;;
177;SDS011;77;48.792;9.032;2022-09-28T00:11:15;3.60;;;2.10;;
177;SDS011;77;48.792;9.032;2022-09-28T00:13:42;4.77;;;2.33;;
177;SDS011;77;48.792;9.032;2022-09-28T00:16:09;4.10;;;2.37;;
177;SDS011;77;48.792;9.032;2022-09-28T00:18:34;4.67;;;2.60;;
177;SDS011;77;48.792;9.032;2022-09-28T00:21:00;7.23;;;2.33;;
177;SDS011;77;48.792;9.032;2022-09-28T00:23:26;4.07;;;2.50;;
177;SDS011;77;48.792;9.032;2022-09-28T00:25:51;8.17;;;2.30;;
177;SDS011;77;48.792;9.032;2022-09-28T00:28:16;5.87;;;2.40;;
177;SDS011;77;48.792;9.032;2022-09-28T00:30:43;4.63;;;2.33;;
177;SDS011;77;48.792;9.032;2022-09-28T00:33:08;3.50;;;2.20;;
177;SDS011;77;48.792;9.032;2022-09-28T00:35:33;4.00;;;2.27;;
177;SDS011;77;48.792;9.032;2022-09-28T00:37:58;4.87;;;2.50;;
177;SDS011;77;48.792;9.032;2022-09-28T00:40:24;4.40;;;2.53;;
177;SDS011;77;48.792;9.032;2022-09-28T00:42:49;6.50;;;2.27;;
177;SDS011;77;48.792;9.032;2022-09-28T00:45:14;3.50;;;2.33;;
177;SDS011;77;48.792;9.032;2022-09-28T00:47:42;6.20;;;2.73;;
177;SDS011;77;48.792;9.032;2022-09-28T00:50:11;3.13;;;1.97;;
177;SDS011;77;48.792;9.032;2022-09-28T00:52:39;3.10;;;2.10;;
177;SDS011;77;48.792;9.032;2022-09-28T00:55:06;4.20;;;2.07;;
177;SDS011;77;48.792;9.032;2022-09-28T00:57:32;5.77;;;2.40;;
177;SDS011;77;48.792;9.032;2022-09-28T00:59:58;3.93;;;2.23;;
177;SDS011;77;48.792;9.032;2022-09-28T01:02:24;3.10;;;2.00;;
177;SDS011;77;48.792;9.032;2022-09-28T01:04:51;4.93;;;2.13;;
177;SDS011;77;48.792;9.032;2022-09-28T01:07:16;3.90;;;2.10;;
177;SDS011;77;48.792;9.032;2022-09-28T01:09:42;2.83;;;1.90;;
177;SDS011;77;48.792;9.032;2022-09-28T01:12:08;6.10;;;2.10;;
177;SDS011;77;48.792;9.032;2022-09-28T01:14:33;5.00;;;2.10;;
177;SDS011;77;48.792;9.032;2022-09-28T01:17:01;3.30;;;1.93;;
177;SDS011;77;48.792;9.032;2022-09-28T01:19:33;3.70;;;2.20;;
177;SDS011;77;48.792;9.032;2022-09-28T01:22:06;7.70;;;2.10;;
177;SDS011;77;48.792;9.032;2022-09-28T01:24:38;4.30;;;2.13;;
177;SDS011;77;48.792;9.032;2022-09-28T01:27:07;4.17;;;2.30;;
177;SDS011;77;48.792;9.032;2022-09-28T01:29:40;7.23;;;2.40;;
177;SDS011;77;48.792;9.032;2022-09-28T01:32:10;3.70;;;2.10;;
177;SDS011;77;48.792;9.032;2022-09-28T01:34:37;4.33;;;2.33;;
177;SDS011;77;48.792;9.032;2022-09-28T01:37:03;4.27;;;2.20;;
177;SDS011;77;48.792;9.032;2022-09-28T01:39:31;3.70;;;2.07;;
177;SDS011;77;48.792;9.032;2022-09-28T01:41:59;5.60;;;2.50;;
177;SDS011;77;48.792;9.032;2022-09-28T01:44:28;3.60;;;2.30;;
177;SDS011;77;48.792;9.032;2022-09-28T01:46:54;4.87;;;2.30;;
177;SDS011;77;48.792;9.032;2022-09-28T01:49:19;3.77;;;2.40;;
177;SDS011;77;48.792;9.032;2022-09-28T01:51:46;6.20;;;2.40;;
177;SDS011;77;48.792;9.032;2022-09-28T01:54:16;4.70;;;2.30;;
177;SDS011;77;48.792;9.032;2022-09-28T01:56:44;7.73;;;2.33;;
177;SDS011;77;48.792;9.032;2022-09-28T01:59:10;10.17;;;2.30;;
177;SDS011;77;48.792;9.032;2022-09-28T02:01:39;8.63;;;2.50;;
177;SDS011;77;48.792;9.032;2022-09-28T02:04:06;7.93;;;2.83;;
177;SDS011;77;48.792;9.032;2022-09-28T02:06:33;6.57;;;2.67;;
177;SDS011;77;48.792;9.032;2022-09-28T02:09:02;6.63;;;3.03;;
177;SDS011;77;48.792;9.032;2022-09-28T02:11:29;7.90;;;2.60;;
177;SDS011;77;48.792;9.032;2022-09-28T02:13:55;7.33;;;2.40;;
177;SDS011;77;48.792;9.032;2022-09-28T02:16:24;6.13;;;2.40;;
177;SDS011;77;48.792;9.032;2022-09-28T02:18:54;6.93;;;2.63;;
177;SDS011;77;48.792;9.032;2022-09-28T02:21:21;7.10;;;2.60;;
177;SDS011;77;48.792;9.032;2022-09-28T02:23:48;5.73;;;2.40;;
177;SDS011;77;48.792;9.032;2022-09-28T02:26:16;8.77;;;2.90;;
177;SDS011;77;48.792;9.032;2022-09-28T02:28:44;7.20;;;2.60;;
177;SDS011;77;48.792;9.032;2022-09-28T02:31:10;5.60;;;2.60;;
177;SDS011;77;48.792;9.032;2022-09-28T02:33:35;4.90;;;2.40;;
177;SDS011;77;48.792;9.032;2022-09-28T02:36:04;6.33;;;2.60;;
177;SDS011;77;48.792;9.032;2022-09-28T02:38:29;5.63;;;2.60;;
177;SDS011;77;48.792;9.032;2022-09-28T02:40:56;8.20;;;2.57;;
177;SDS011;77;48.792;9.032;2022-09-28T02:43:24;7.87;;;2.97;;
177;SDS011;77;48.792;9.032;2022-09-28T02:45:54;8.20;;;2.50;;
177;SDS011;77;48.792;9.032;2022-09-28T02:48:27;5.73;;;2.60;;
177;SDS011;77;48.792;9.032;2022-09-28T02:50:58;7.23;;;2.67;;
177;SDS011;77;48.792;9.032;2022-09-28T02:53:32;6.93;;;2.57;;
177;SDS011;77;48.792;9.032;2022-09-28T02:56:08;6.30;;;2.80;;
177;SDS011;77;48.792;9.032;2022-09-28T02:58:37;6.10;;;2.93;;
177;SDS011;77;48.792;9.032;2022-09-28T03:01:05;6.10;;;2.73;;
177;SDS011;77;48.792;9.032;2022-09-28T03:03:36;9.40;;;2.80;;
177;SDS011;77;48.792;9.032;2022-09-28T03:06:06;6.17;;;2.57;;
177;SDS011;77;48.792;9.032;2022-09-28T03:08:36;6.57;;;2.53;;
177;SDS011;77;48.792;9.032;2022-09-28T03:11:04;5.10;;;2.40;;
177;SDS011;77;48.792;9.032;2022-09-28T03:13:31;6.73;;;2.73;;
177;SDS011;77;48.792;9.032;2022-09-28T03:16:07;7.40;;;2.50;;
177;SDS011;77;48.792;9.032;2022-09-28T03:18:33;6.10;;;2.57;;
177;SDS011;77;48.792;9.032;2022-09-28T03:20:58;7.63;;;3.10;;
177;SDS011;77;48.792;9.032;2022-09-28T03:23:26;6.20;;;2.53;;
177;SDS011;77;48.792;9.032;2022-09-28T03:25:52;5.90;;;2.40;;
177;SDS011;77;48.792;9.032;2022-09-28T03:28:18;5.70;;;2.73;;
177;SDS011;77;48.792;9.032;2022-09-28T03:30:43;6.63;;;2.57;;
177;SDS011;77;48.792;9.032;2022-09-28T03:33:08;4.20;;;2.50;;
177;SDS011;77;48.792;9.032;2022-09-28T03:35:33;7.00;;;2.80;;
177;SDS011;77;48.792;9.032;2022-09-28T03:37:58;5.27;;;2.70;;
177;SDS011;77;48.792;9.032;2022-09-28T03:40:24;6.77;;;2.60;;
177;SDS011;77;48.792;9.032;2022-09-28T03:42:50;6.50;;;2.63;;
177;SDS011;77;48.792;9.032;2022-09-28T03:45:15;5.53;;;2.67;;
177;SDS011;77;48.792;9.032;2022-09-28T03:47:43;6.47;;;2.40;;
177;SDS011;77;48.792;9.032;2022-09-28T03:50:09;6.37;;;2.50;;
177;SDS011;77;48.792;9.032;2022-09-28T03:52:34;6.60;;;2.60;;
177;SDS011;77;48.792;9.032;2022-09-28T03:54:59;5.07;;;2.50;;
177;SDS011;77;48.792;9.032;2022-09-28T03:57:24;4.60;;;2.07;;
177;SDS011;77;48.792;9.032;2022-09-28T03:59:51;4.40;;;2.60;;
177;SDS011;77;48.792;9.032;2022-09-28T04:02:16;4.17;;;2.20;;
177;SDS011;77;48.792;9.032;2022-09-28T04:04:41;3.13;;;1.90;;
177;SDS011;77;48.792;9.032;2022-09-28T04:07:07;3.63;;;1.90;;
177;SDS011;77;48.792;9.032;2022-09-28T04:09:32;3.77;;;2.00;;
177;SDS011;77;48.792;9.032;2022-09-28T04:11:57;3.47;;;2.07;;
177;SDS011;77;48.792;9.032;2022-09-28T04:14:22;3.67;;;1.77;;
177;SDS011;77;48.792;9.032;2022-09-28T04:16:49;4.17;;;1.73;;
177;SDS011;77;48.792;9.032;2022-09-28T04:19:16;5.43;;;3.50;;
177;SDS011;77;48.792;9.032;2022-09-28T04:21:42;2.83;;;2.00;;
177;SDS011;77;48.792;9.032;2022-09-28T04:24:08;3.00;;;1.90;;
177;SDS011;77;48.792;9.032;2022-09-28T04:26:33;5.17;;;2.40;;
177;SDS011;77;48.792;9.032;2022-09-28T04:28:58;4.50;;;2.33;;
177;SDS011;77;48.792;9.032;2022-09-28T04:31:23;4.03;;;1.90;;
177;SDS011;77;48.792;9.032;2022-09-28T04:33:50;2.70;;;1.60;;
177;SDS011;77;48.792;9.032;2022-09-28T04:36:15;3.37;;;1.60;;
177;SDS011;77;48.792;9.032;2022-09-28T04:38:40;4.23;;;2.30;;
177;SDS011;77;48.792;9.032;2022-09-28T04:41:06;4.50;;;1.80;;
177;SDS011;77;48.792;9.032;2022-09-28T04:43:31;3.00;;;1.70;;
177;SDS011;77;48.792;9.032;2022-09-28T04:45:57;3.77;;;1.90;;
177;SDS011;77;48.792;9.032;2022-09-28T04:48:22;5.07;;;2.97;;
177;SDS011;77;48.792;9.032;2022-09-28T04:50:53;4.07;;;2.10;;
177;SDS011;77;48.792;9.032;2022-09-28T04:53:18;4.00;;;2.20;;
177;SDS011;77;48.792;9.032;2022-09-28T04:55:43;4.60;;;2.07;;
177;SDS011;77;48.792;9.032;2022-09-28T04:58:08;3.93;;;1.80;;
177;SDS011;77;48.792;9.032;2022-09-28T05:00:34;3.60;;;1.83;;
177;SDS011;77;48.792;9.032;2022-09-28T05:02:59;5.13;;;2.00;;
177;SDS011;77;48.792;9.032;2022-09-28T05:05:24;6.73;;;1.97;;
177;SDS011;77;48.792;9.032;2022-09-28T05:07:51;4.30;;;2.10;;
177;SDS011;77;48.792;9.032;2022-09-28T05:10:16;4.60;;;2.07;;
177;SDS011;77;48.792;9.032;2022-09-28T05:12:41;3.20;;;2.00;;
177;SDS011;77;48.792;9.032;2022-09-28T05:15:07;3.37;;;1.77;;
177;SDS011;77;48.792;9.032;2022-09-28T05:17:32;4.00;;;2.10;;
177;SDS011;77;48.792;9.032;2022-09-28T05:19:57;3.80;;;2.07;;
177;SDS011;77;48.792;9.032;2022-09-28T05:22:22;3.70;;;2.00;;
177;SDS011;77;48.792;9.032;2022-09-28T05:24:49;3.77;;;2.20;;
177;SDS011;77;48.792;9.032;2022-09-28T05:27:14;4.50;;;1.93;;
177;SDS011;77;48.792;9.032;2022-09-28T05:29:40;3.37;;;1.80;;
177;SDS011;77;48.792;9.032;2022-09-28T05:32:07;5.30;;;2.23;;
177;SDS011;77;48.792;9.032;2022-09-28T05:34:32;4.50;;;2.10;;
177;SDS011;77;48.792;9.032;2022-09-28T05:36:57;5.17;;;2.00;;
177;SDS011;77;48.792;9.032;2022-09-28T05:39:23;6.43;;;2.33;;
177;SDS011;77;48.792;9.032;2022-09-28T05:41:49;3.67;;;2.27;;
177;SDS011;77;48.792;9.032;2022-09-28T05:44:15;4.20;;;2.23;;
177;SDS011;77;48.792;9.032;2022-09-28T05:46:40;4.50;;;2.17;;
177;SDS011;77;48.792;9.032;2022-09-28T05:49:05;3.83;;;2.13;;
177;SDS011;77;48.792;9.032;2022-09-28T05:51:30;4.30;;;2.10;;
177;SDS011;77;48.792;9.032;2022-09-28T05:53:56;6.33;;;2.93;;
177;SDS011;77;48.792;9.032;2022-09-28T05:56:21;5.13;;;2.70;;
177;SDS011;77;48.792;9.032;2022-09-28T05:58:48;5.20;;;2.90;;
177;SDS011;77;48.792;9.032;2022-09-28T06:01:13;4.73;;;2.60;;
177;SDS011;77;48.792;9.032;2022-09-28T06:03:38;4.30;;;2.70;;
177;SDS011;77;48.792;9.032;2022-09-28T06:06:04;5.30;;;2.70;;
177;SDS011;77;48.792;9.032;2022-09-28T06:08:29;8.73;;;2.80;;
177;SDS011;77;48.792;9.032;2022-09-28T06:10:57;4.70;;;2.50;;
177;SDS011;77;48.792;9.032;2022-09-28T06:13:22;5.60;;;2.90;;
177;SDS011;77;48.792;9.032;2022-09-28T06:15:49;5.43;;;2.70;;
177;SDS011;77;48.792;9.032;2022-09-28T06:18:14;5.23;;;2.50;;
177;SDS011;77;48.792;9.032;2022-09-28T06:20:42;5.10;;;2.70;;
177;SDS011;77;48.792;9.032;2022-09-28T06:23:07;7.30;;;2.57;;
177;SDS011;77;48.792;9.032;2022-09-28T06:25:36;5.77;;;3.03;;
177;SDS011;77;48.792;9.032;2022-09-28T06:28:02;6.57;;;2.90;;
177;SDS011;77;48.792;9.032;2022-09-28T06:30:33;5.50;;;2.90;;
177;SDS011;77;48.792;9.032;2022-09-28T06:33:00;9.53;;;3.43;;
177;SDS011;77;48.792;9.032;2022-09-28T06:35:27;5.50;;;3.00;;
177;SDS011;77;48.792;9.032;2022-09-28T06:37:52;7.87;;;3.60;;
177;SDS011;77;48.792;9.032;2022-09-28T06:40:17;6.07;;;3.10;;
177;SDS011;77;48.792;9.032;2022-09-28T06:42:43;6.57;;;3.67;;
177;SDS011;77;48.792;9.032;2022-09-28T06:45:08;8.57;;;3.47;;
177;SDS011;77;48.792;9.032;2022-09-28T06:47:34;7.50;;;3.30;;
177;SDS011;77;48.792;9.032;2022-09-28T06:50:04;7.07;;;3.40;;
177;SDS011;77;48.792;9.032;2022-09-28T06:52:29;6.30;;;3.30;;
177;SDS011;77;48.792;9.032;2022-09-28T06:54:54;7.10;;;3.10;;
177;SDS011;77;48.792;9.032;2022-09-28T06:57:21;6.60;;;3.37;;
177;SDS011;77;48.792;9.032;2022-09-28T06:59:47;6.30;;;3.30;;
177;SDS011;77;48.792;9.032;2022-09-28T07:02:12;6.53;;;3.30;;
177;SDS011;77;48.792;9.032;2022-09-28T07:04:39;8.43;;;3.50;;
177;SDS011;77;48.792;9.032;2022-09-28T07:07:05;6.83;;;3.30;;
177;SDS011;77;48.792;9.032;2022-09-28T07:09:31;6.27;;;3.10;;
177;SDS011;77;48.792;9.032;2022-09-28T07:11:57;7.70;;;3.50;;
177;SDS011;77;48.792;9.032;2022-09-28T07:14:22;7.63;;;3.53;;
177;SDS011;77;48.792;9.032;2022-09-28T07:16:47;5.53;;;3.20;;
177;SDS011;77;48.792;9.032;2022-09-28T07:19:13;8.17;;;3.30;;
177;SDS011;77;48.792;9.032;2022-09-28T07:21:38;9.83;;;4.20;;
177;SDS011;77;48.792;9.032;2022-09-28T07:24:05;8.57;;;3.17;;
177;SDS011;77;48.792;9.032;2022-09-28T07:26:31;6.20;;;3.10;;
177;SDS011;77;48.792;9.032;2022-09-28T07:28:56;6.57;;;3.00;;
177;SDS011;77;48.792;9.032;2022-09-28T07:31:23;7.90;;;3.20;;
177;SDS011;77;48.792;9.032;2022-09-28T07:33:49;4.87;;;3.10;;
177;SDS011;77;48.792;9.032;2022-09-28T07:36:14;6.37;;;3.30;;
177;SDS011;77;48.792;9.032;2022-09-28T07:38:41;7.63;;;3.53;;
177;SDS011;77;48.792;9.032;2022-09-28T07:41:08;5.60;;;3.33;;
177;SDS011;77;48.792;9.032;2022-09-28T07:43:34;7.37;;;3.90;;
177;SDS011;77;48.792;9.032;2022-09-28T07:45:59;6.60;;;3.67;;
177;SDS011;77;48.792;9.032;2022-09-28T07:48:24;5.83;;;3.70;;
177;SDS011;77;48.792;9.032;2022-09-28T07:50:50;7.03;;;3.77;;
177;SDS011;77;48.792;9.032;2022-09-28T07:53:16;7.00;;;3.63;;
177;SDS011;77;48.792;9.032;2022-09-28T07:55:41;5.67;;;3.40;;
177;SDS011;77;48.792;9.032;2022-09-28T07:58:08;7.00;;;3.00;;
177;SDS011;77;48.792;9.032;2022-09-28T08:00:33;4.90;;;3.00;;
177;SDS011;77;48.792;9.032;2022-09-28T08:02:59;5.90;;;3.27;;
177;SDS011;77;48.792;9.032;2022-09-28T08:05:24;10.50;;;3.40;;
177;SDS011;77;48.792;9.032;2022-09-28T08:07:49;7.77;;;3.63;;
177;SDS011;77;48.792;9.032;2022-09-28T08:10:15;5.00;;;3.13;;
177;SDS011;77;48.792;9.032;2022-09-28T08:12:40;6.47;;;3.43;;
177;SDS011;77;48.792;9.032;2022-09-28T08:15:07;8.40;;;3.47;;
177;SDS011;77;48.792;9.032;2022-09-28T08:17:32;10.37;;;3.30;;
177;SDS011;77;48.792;9.032;2022-09-28T08:19:58;8.07;;;3.10;;
177;SDS011;77;48.792;9.032;2022-09-28T08:22:28;6.30;;;3.20;;
177;SDS011;77;48.792;9.032;2022-09-28T08:24:53;5.63;;;3.07;;
177;SDS011;77;48.792;9.032;2022-09-28T08:27:18;6.33;;;3.23;;
177;SDS011;77;48.792;9.032;2022-09-28T08:29:43;4.73;;;3.10;;
177;SDS011;77;48.792;9.032;2022-09-28T08:32:12;6.10;;;3.43;;
177;SDS011;77;48.792;9.032;2022-09-28T08:34:38;5.67;;;3.13;;
177;SDS011;77;48.792;9.032;2022-09-28T08:37:03;4.63;;;2.93;;
177;SDS011;77;48.792;9.032;2022-09-28T08:39:29;8.33;;;3.83;;
177;SDS011;77;48.792;9.032;2022-09-28T08:41:57;7.60;;;3.63;;
177;SDS011;77;48.792;9.032;2022-09-28T08:44:29;7.90;;;3.70;;
177;SDS011;77;48.792;9.032;2022-09-28T08:46:57;7.07;;;3.70;;
177;SDS011;77;48.792;9.032;2022-09-28T08:49:27;7.50;;;3.37;;
177;SDS011;77;48.792;9.032;2022-09-28T08:51:54;6.97;;;3.50;;
177;SDS011;77;48.792;9.032;2022-09-28T08:54:24;6.40;;;3.50;;
177;SDS011;77;48.792;9.032;2022-09-28T08:56:54;5.60;;;3.57;;
177;SDS011;77;48.792;9.032;2022-09-28T08:59:23;7.33;;;4.23;;
177;SDS011;77;48.792;9.032;2022-09-28T09:01:49;5.87;;;3.40;;
177;SDS011;77;48.792;9.032;2022-09-28T09:04:17;7.63;;;4.03;;
177;SDS011;77;48.792;9.032;2022-09-28T09:06:54;7.20;;;3.70;;
177;SDS011;77;48.792;9.032;2022-09-28T09:09:24;6.57;;;3.70;;
177;SDS011;77;48.792;9.032;2022-09-28T09:11:56;7.97;;;3.93;;
177;SDS011;77;48.792;9.032;2022-09-28T09:14:27;7.30;;;3.80;;
177;SDS011;77;48.792;9.032;2022-09-28T09:16:58;7.53;;;3.77;;
177;SDS011;77;48.792;9.032;2022-09-28T09:19:33;8.13;;;4.40;;
177;SDS011;77;48.792;9.032;2022-09-28T09:22:00;7.70;;;4.40;;
177;SDS011;77;48.792;9.032;2022-09-28T09:24:30;7.67;;;4.47;;
177;SDS011;77;48.792;9.032;2022-09-28T09:27:01;10.40;;;4.50;;
177;SDS011;77;48.792;9.032;2022-09-28T09:29:29;8.93;;;4.70;;
177;SDS011;77;48.792;9.032;2022-09-28T09:31:58;7.30;;;4.40;;
177;SDS011;77;48.792;9.032;2022-09-28T09:37:16;9.63;;;4.47;;
177;SDS011;77;48.792;9.032;2022-09-28T09:39:46;7.77;;;4.53;;
177;SDS011;77;48.792;9.032;2022-09-28T09:42:20;6.33;;;4.33;;
177;SDS011;77;48.792;9.032;2022-09-28T09:44:51;7.57;;;4.17;;
177;SDS011;77;48.792;9.032;2022-09-28T09:47:20;7.63;;;4.10;;
177;SDS011;77;48.792;9.032;2022-09-28T09:49:48;7.53;;;4.27;;
177;SDS011;77;48.792;9.032;2022-09-28T09:52:19;7.90;;;4.40;;
177;SDS011;77;48.792;9.032;2022-09-28T09:54:46;8.40;;;4.80;;
177;SDS011;77;48.792;9.032;2022-09-28T09:57:14;8.50;;;4.30;;
177;SDS011;77;48.792;9.032;2022-09-28T09:59:41;8.20;;;4.60;;
177;SDS011;77;48.792;9.032;2022-09-28T10:02:11;9.20;;;4.57;;
177;SDS011;77;48.792;9.032;2022-09-28T10:04:38;8.17;;;4.50;;
177;SDS011;77;48.792;9.032;2022-09-28T10:07:05;9.10;;;4.70;;
177;SDS011;77;48.792;9.032;2022-09-28T10:09:35;9.33;;;4.63;;
177;SDS011;77;48.792;9.032;2022-09-28T10:12:02;7.10;;;3.93;;
177;SDS011;77;48.792;9.032;2022-09-28T10:14:27;7.93;;;4.10;;
177;SDS011;77;48.792;9.032;2022-09-28T10:16:53;7.47;;;3.90;;
177;SDS011;77;48.792;9.032;2022-09-28T10:19:20;8.30;;;3.80;;
177;SDS011;77;48.792;9.032;2022-09-28T10:21:45;7.17;;;3.90;;
177;SDS011;77;48.792;9.032;2022-09-28T10:24:14;5.80;;;4.10;;
177;SDS011;77;48.792;9.032;2022-09-28T10:26:42;10.33;;;4.30;;
177;SDS011;77;48.792;9.032;2022-09-28T10:29:10;6.90;;;3.90;;
177;SDS011;77;48.792;9.032;2022-09-28T10:31:37;6.73;;;3.70;;
177;SDS011;77;48.792;9.032;2022-09-28T10:34:05;5.30;;;3.43;;
177;SDS011;77;48.792;9.032;2022-09-28T10:36:30;8.90;;;4.07;;
177;SDS011;77;48.792;9.032;2022-09-28T10:38:56;5.60;;;3.47;;
177;SDS011;77;48.792;9.032;2022-09-28T10:41:22;7.50;;;4.10;;
177;SDS011;77;48.792;9.032;2022-09-28T10:43:50;7.73;;;4.00;;
177;SDS011;77;48.792;9.032;2022-09-28T10:46:19;8.30;;;3.33;;
177;SDS011;77;48.792;9.032;2022-09-28T10:48:49;7.40;;;3.70;;
177;SDS011;77;48.792;9.032;2022-09-28T10:51:15;7.50;;;3.90;;
177;SDS011;77;48.792;9.032;2022-09-28T10:53:41;7.87;;;3.77;;
177;SDS011;77;48.792;9.032;2022-09-28T10:56:06;7.63;;;3.70;;
177;SDS011;77;48.792;9.032;2022-09-28T10:58:42;6.70;;;3.50;;
177;SDS011;77;48.792;9.032;2022-09-28T11:01:12;7.67;;;3.97;;
177;SDS011;77;48.792;9.032;2022-09-28T11:03:48;8.20;;;3.30;;
177;SDS011;77;48.792;9.032;2022-09-28T11:06:14;10.83;;;3.60;;
177;SDS011;77;48.792;9.032;2022-09-28T11:08:40;5.70;;;3.47;;
177;SDS011;77;48.792;9.032;2022-09-28T11:11:09;6.43;;;3.40;;
177;SDS011;77;48.792;9.032;2022-09-28T11:13:39;6.33;;;3.40;;
177;SDS011;77;48.792;9.032;2022-09-28T11:16:04;4.90;;;3.10;;
177;SDS011;77;48.792;9.032;2022-09-28T11:18:31;5.90;;;3.17;;
177;SDS011;77;48.792;9.032;2022-09-28T11:23:40;6.93;;;3.23;;
177;SDS011;77;48.792;9.032;2022-09-28T11:26:05;9.03;;;3.50;;
177;SDS011;77;48.792;9.032;2022-09-28T11:28:31;8.47;;;3.33;;
177;SDS011;77;48.792;9.032;2022-09-28T11:30:57;7.53;;;3.50;;
177;SDS011;77;48.792;9.032;2022-09-28T11:33:23;6.03;;;3.13;;
177;SDS011;77;48.792;9.032;2022-09-28T11:35:54;5.13;;;3.10;;
177;SDS011;77;48.792;9.032;2022-09-28T11:38:24;6.17;;;3.27;;
177;SDS011;77;48.792;9.032;2022-09-28T11:40:55;6.30;;;2.80;;
177;SDS011;77;48.792;9.032;2022-09-28T11:43:25;4.90;;;2.83;;
177;SDS011;77;48.792;9.032;2022-09-28T11:45:57;5.80;;;3.00;;
177;SDS011;77;48.792;9.032;2022-09-28T11:48:26;5.03;;;2.50;;
177;SDS011;77;48.792;9.032;2022-09-28T11:50:55;5.30;;;2.90;;
177;SDS011;77;48.792;9.032;2022-09-28T11:53:23;4.77;;;2.70;;
177;SDS011;77;48.792;9.032;2022-09-28T11:55:50;4.60;;;2.70;;
177;SDS011;77;48.792;9.032;2022-09-28T11:58:21;9.47;;;2.80;;
177;SDS011;77;48.792;9.032;2022-09-28T12:00:48;5.97;;;2.70;;
177;SDS011;77;48.792;9.032;2022-09-28T12:03:15;5.40;;;2.77;;
177;SDS011;77;48.792;9.032;2022-09-28T12:05:43;5.00;;;2.70;;
177;SDS011;77;48.792;9.032;2022-09-28T12:08:13;8.47;;;2.93;;
177;SDS011;77;48.792;9.032;2022-09-28T12:10:42;6.00;;;2.60;;
177;SDS011;77;48.792;9.032;2022-09-28T12:13:09;4.70;;;2.50;;
177;SDS011;77;48.792;9.032;2022-09-28T12:15:39;4.10;;;2.77;;
177;SDS011;77;48.792;9.032;2022-09-28T12:18:06;5.43;;;2.70;;
177;SDS011;77;48.792;9.032;2022-09-28T12:20:37;6.07;;;2.80;;
177;SDS011;77;48.792;9.032;2022-09-28T12:23:04;5.00;;;2.77;;
177;SDS011;77;48.792;9.032;2022-09-28T12:25:35;7.80;;;3.07;;
177;SDS011;77;48.792;9.032;2022-09-28T12:28:05;5.17;;;2.80;;
177;SDS011;77;48.792;9.032;2022-09-28T12:30:32;5.17;;;2.50;;
177;SDS011;77;48.792;9.032;2022-09-28T12:32:59;4.50;;;2.63;;
177;SDS011;77;48.792;9.032;2022-09-28T12:35:27;6.70;;;2.90;;
177;SDS011;77;48.792;9.032;2022-09-28T12:38:02;3.83;;;2.50;;
177;SDS011;77;48.792;9.032;2022-09-28T12:40:35;4.70;;;2.70;;
177;SDS011;77;48.792;9.032;2022-09-28T12:45:45;3.60;;;2.30;;
177;SDS011;77;48.792;9.032;2022-09-28T12:48:19;5.43;;;2.13;;
177;SDS011;77;48.792;9.032;2022-09-28T12:50:48;4.27;;;2.30;;
177;SDS011;77;48.792;9.032;2022-09-28T12:53:22;5.00;;;2.33;;
177;SDS011;77;48.792;9.032;2022-09-28T12:55:53;7.37;;;2.53;;
177;SDS011;77;48.792;9.032;2022-09-28T12:58:36;4.23;;;2.43;;
177;SDS011;77;48.792;9.032;2022-09-28T13:01:05;4.53;;;2.60;;
177;SDS011;77;48.792;9.032;2022-09-28T13:03:49;5.50;;;2.50;;
177;SDS011;77;48.792;9.032;2022-09-28T13:06:20;5.50;;;2.30;;
177;SDS011;77;48.792;9.032;2022-09-28T13:08:51;5.10;;;2.60;;
177;SDS011;77;48.792;9.032;2022-09-28T13:11:21;6.00;;;2.60;;
177;SDS011;77;48.792;9.032;2022-09-28T13:13:52;5.67;;;2.43;;
177;SDS011;77;48.792;9.032;2022-09-28T13:16:21;4.37;;;2.23;;
177;SDS011;77;48.792;9.032;2022-09-28T13:18:51;4.70;;;2.40;;
177;SDS011;77;48.792;9.032;2022-09-28T13:21:21;6.57;;;2.40;;
177;SDS011;77;48.792;9.032;2022-09-28T13:23:47;6.03;;;2.73;;
177;SDS011;77;48.792;9.032;2022-09-28T13:26:16;4.17;;;2.30;;
177;SDS011;77;48.792;9.032;2022-09-28T13:28:44;4.47;;;2.47;;
177;SDS011;77;48.792;9.032;2022-09-28T13:31:10;5.20;;;2.50;;
177;SDS011;77;48.792;9.032;2022-09-28T13:33:37;4.50;;;2.27;;
177;SDS011;77;48.792;9.032;2022-09-28T13:36:03;3.83;;;2.20;;
177;SDS011;77;48.792;9.032;2022-09-28T13:38:48;4.20;;;2.30;;
177;SDS011;77;48.792;9.032;2022-09-28T13:41:15;3.40;;;2.30;;
177;SDS011;77;48.792;9.032;2022-09-28T13:43:47;4.40;;;2.50;;
177;SDS011;77;48.792;9.032;2022-09-28T13:46:19;3.53;;;2.13;;
177;SDS011;77;48.792;9.032;2022-09-28T13:48:48;5.97;;;2.43;;
177;SDS011;77;48.792;9.032;2022-09-28T13:56:48;6.90;;;2.43;;
177;SDS011;77;48.792;9.032;2022-09-28T13:59:17;3.60;;;2.30;;
177;SDS011;77;48.792;9.032;2022-09-28T14:01:48;5.80;;;2.40;;
177;SDS011;77;48.792;9.032;2022-09-28T14:04:15;4.77;;;2.60;;
177;SDS011;77;48.792;9.032;2022-09-28T14:06:41;7.13;;;2.67;;
177;SDS011;77;48.792;9.032;2022-09-28T14:09:24;5.00;;;2.60;;
177;SDS011;77;48.792;9.032;2022-09-28T14:11:53;4.40;;;2.23;;
177;SDS011;77;48.792;9.032;2022-09-28T14:14:30;4.10;;;2.30;;
177;SDS011;77;48.792;9.032;2022-09-28T14:20:01;5.70;;;2.37;;
177;SDS011;77;48.792;9.032;2022-09-28T14:22:28;4.47;;;2.23;;
177;SDS011;77;48.792;9.032;2022-09-28T14:25:01;3.90;;;2.27;;
177;SDS011;77;48.792;9.032;2022-09-28T14:27:38;5.27;;;2.13;;
177;SDS011;77;48.792;9.032;2022-09-28T14:30:17;3.20;;;2.13;;
177;SDS011;77;48.792;9.032;2022-09-28T14:32:46;5.13;;;2.20;;
177;SDS011;77;48.792;9.032;2022-09-28T14:35:14;5.27;;;2.20;;
177;SDS011;77;48.792;9.032;2022-09-28T14:37:41;4.87;;;2.20;;
177;SDS011;77;48.792;9.032;2022-09-28T14:40:15;4.43;;;2.20;;
177;SDS011;77;48.792;9.032;2022-09-28T14:42:42;3.70;;;2.00;;
177;SDS011;77;48.792;9.032;2022-09-28T14:45:34;4.93;;;2.00;;
177;SDS011;77;48.792;9.032;2022-09-28T14:48:13;5.00;;;2.20;;
177;SDS011;77;48.792;9.032;2022-09-28T14:50:39;5.23;;;2.27;;
177;SDS011;77;48.792;9.032;2022-09-28T14:53:05;3.80;;;2.00;;
177;SDS011;77;48.792;9.032;2022-09-28T14:55:37;3.30;;;2.10;;
177;SDS011;77;48.792;9.032;2022-09-28T14:58:04;3.40;;;1.90;;
177;SDS011;77;48.792;9.032;2022-09-28T15:00:30;5.20;;;2.13;;
177;SDS011;77;48.792;9.032;2022-09-28T15:02:59;5.03;;;2.43;;
177;SDS011;77;48.792;9.032;2022-09-28T15:05:26;3.00;;;2.17;;
177;SDS011;77;48.792;9.032;2022-09-28T15:07:52;4.63;;;2.10;;
177;SDS011;77;48.792;9.032;2022-09-28T15:10:21;5.10;;;2.30;;
177;SDS011;77;48.792;9.032;2022-09-28T15:12:48;4.17;;;2.23;;
177;SDS011;77;48.792;9.032;2022-09-28T15:15:19;5.27;;;2.20;;
177;SDS011;77;48.792;9.032;2022-09-28T15:17:49;4.63;;;2.00;;
177;SDS011;77;48.792;9.032;2022-09-28T15:20:23;4.80;;;2.03;;
177;SDS011;77;48.792;9.032;2022-09-28T15:22:49;4.20;;;2.00;;
177;SDS011;77;48.792;9.032;2022-09-28T15:25:17;4.13;;;2.00;;
177;SDS011;77;48.792;9.032;2022-09-28T15:27:43;7.40;;;2.13;;
177;SDS011;77;48.792;9.032;2022-09-28T15:30:16;4.47;;;2.10;;
177;SDS011;77;48.792;9.032;2022-09-28T15:32:45;3.87;;;1.87;;
177;SDS011;77;48.792;9.032;2022-09-28T15:35:11;3.80;;;2.03;;
177;SDS011;77;48.792;9.032;2022-09-28T15:37:38;5.17;;;2.13;;
177;SDS011;77;48.792;9.032;2022-09-28T15:40:07;3.63;;;2.10;;
177;SDS011;77;48.792;9.032;2022-09-28T15:42:35;5.23;;;2.10;;
177;SDS011;77;48.792;9.032;2022-09-28T15:45:02;4.23;;;2.30;;
177;SDS011;77;48.792;9.032;2022-09-28T15:47:28;5.30;;;2.27;;
177;SDS011;77;48.792;9.032;2022-09-28T15:49:54;3.50;;;2.00;;
177;SDS011;77;48.792;9.032;2022-09-28T15:52:22;3.77;;;2.00;;
177;SDS011;77;48.792;9.032;2022-09-28T15:54:50;5.50;;;2.50;;
177;SDS011;77;48.792;9.032;2022-09-28T15:57:30;4.10;;;2.13;;
177;SDS011;77;48.792;9.032;2022-09-28T15:59:56;3.73;;;2.20;;
177;SDS011;77;48.792;9.032;2022-09-28T16:02:24;3.57;;;2.03;;
177;SDS011;77;48.792;9.032;2022-09-28T16:04:50;4.50;;;2.23;;
177;SDS011;77;48.792;9.032;2022-09-28T16:07:19;5.20;;;2.10;;
177;SDS011;77;48.792;9.032;2022-09-28T16:09:54;3.97;;;2.23;;
177;SDS011;77;48.792;9.032;2022-09-28T16:12:22;3.63;;;2.00;;
177;SDS011;77;48.792;9.032;2022-09-28T16:14:48;5.17;;;2.23;;
177;SDS011;77;48.792;9.032;2022-09-28T16:17:14;4.40;;;2.10;;
177;SDS011;77;48.792;9.032;2022-09-28T16:19:40;4.20;;;2.20;;